Date,TemperatureHighF,TemperatureAvgF,TemperatureLowF,DewpointHighF,DewpointAvgF,DewpointLowF,HumidityHigh,HumidityAvg,HumidityLow,PressureMaxIn,PressureMinIn,WindSpeedMaxMPH,WindSpeedAvgMPH,GustSpeedMaxMPH,PrecipitationSumIn
2013-1-1,35,33,29,35,32,28,100,100,96,30.10,29.99,75,10,75,0.41
2013-1-2,34,27,19,29,24,18,99,89,70,30.22,30.07,75,9,75,0.09
2013-1-3,37,26,17,28,22,17,100,86,56,30.33,30.17,75,9,75,0.02
2013-1-4,36,31,27,28,26,23,89,82,72,30.37,30.30,75,23,75,0.01
2013-1-5,44,32,20,32,27,19,97,82,61,30.36,30.15,75,15,75,0.00
2013-1-6,41,37,35,36,32,30,86,83,79,30.15,30.02,43,26,43,0.00
2013-1-7,44,34,19,31,27,18,97,77,59,30.45,30.21,75,4,75,0.00
2013-1-8,53,38,25,38,31,22,90,77,54,30.32,30.19,75,4,75,0.00
2013-1-9,54,45,38,48,42,34,98,88,76,30.50,30.21,75,9,75,0.00
2013-1-10,50,43,38,49,40,32,98,90,68,30.50,30.07,33,6,33,0.14
2013-1-11,65,57,50,57,53,49,100,88,62,30.07,29.88,38,9,38,0.36
2013-1-12,65,60,56,64,60,55,100,100,99,30.05,29.85,40,8,40,0.10
2013-1-13,139,56,36,100,56,35,100,98,85,30.15,29.80,67,12,68,2.21
2013-1-14,36,29,25,36,27,24,100,94,86,30.97,30.15,75,6,75,0.01
2013-1-15,33,29,25,31,27,24,100,94,85,30.31,30.01,44,5,44,0.00
2013-1-16,32,31,30,32,31,30,100,100,100,30.09,29.93,75,17,75,0.05
2013-1-17,42,34,29,36,31,26,100,91,73,30.35,30.07,54,5,54,0.09
2013-1-18,40,31,19,27,23,17,94,75,58,30.52,30.27,61,7,61,0.00
2013-1-19,54,43,33,33,29,25,77,60,40,30.28,29.98,40,10,40,0.00
2013-1-20,45,37,24,34,21,12,81,55,32,30.19,29.98,75,9,75,0.00
2013-1-21,29,23,14,19,12,2,81,64,48,30.21,30.05,75,13,75,0.00
2013-1-22,19,14,8,4,2,-1,71,60,45,30.37,30.21,75,14,75,0.00
2013-1-23,32,21,11,19,11,3,79,64,49,30.33,30.03,75,16,75,0.00
2013-1-24,27,21,15,20,7,2,76,55,38,30.53,30.05,75,20,75,0.00
2013-1-25,26,23,20,25,18,7,98,83,57,30.37,30.01,75,23,75,0.00
2013-1-26,39,28,22,26,22,17,100,80,50,30.37,30.13,75,12,75,0.00
2013-1-27,24,24,23,20,19,19,83,82,80,30.37,30.35,73,3,75,0.00
2013-1-28,53,51,46,52,49,42,100,96,83,30.14,30.08,44,32,44,0.23
2013-1-29,66,59,50,60,56,50,100,90,78,30.09,29.64,47,18,47,0.00
2013-1-30,67,53,32,61,51,28,100,92,78,29.65,29.31,75,18,75,0.98
2013-1-31,33,28,18,28,23,18,100,81,65,30.00,29.61,47,25,47,0.00
2013-2-1,19,12,5,18,7,0,100,78,65,30.42,29.99,75,19,75,0.00
2013-2-2,31,24,13,30,23,9,100,93,84,30.29,29.96,33,0,33,0.09
2013-2-3,29,26,21,26,22,17,93,87,81,30.10,29.89,0,0,0,0.00
2013-2-4,40,29,13,39,26,11,100,88,66,30.09,29.80,75,8,75,0.14
2013-2-5,48,40,34,41,37,33,100,90,69,29.99,29.81,38,3,38,0.01
2013-2-6,46,35,26,35,31,26,100,85,64,30.23,29.99,75,22,75,0.00
2013-2-7,64,47,34,43,36,31,91,69,43,30.17,29.83,75,17,75,0.00
2013-2-8,48,38,33,46,35,29,100,90,67,30.31,29.81,75,25,75,0.08
2013-2-9,45,34,25,31,24,22,91,69,45,30.40,30.18,75,11,75,0.00
2013-2-10,57,44,34,48,34,22,97,68,40,30.18,29.82,44,20,44,0.06
2013-2-11,53,48,37,53,38,28,100,73,49,30.08,29.80,42,6,42,0.02
2013-2-12,49,38,27,32,29,23,88,69,48,30.14,29.86,75,3,75,0.00
2013-2-13,39,34,30,36,31,28,100,87,69,29.90,29.71,75,13,75,0.03
2013-2-14,54,40,29,42,35,29,100,83,52,29.96,29.82,75,21,75,0.00
2013-2-15,41,35,26,37,31,22,95,84,65,30.12,29.96,75,8,75,0.03
2013-2-16,32,25,18,26,18,11,99,78,51,30.13,29.99,75,8,75,0.00
2013-2-17,34,24,16,16,13,9,90,65,36,30.22,30.07,75,6,75,0.00
2013-2-18,59,42,25,39,27,12,74,56,43,30.17,29.77,45,11,45,0.05
2013-2-19,47,35,24,41,28,18,100,77,54,30.12,29.70,43,25,44,0.26
2013-2-20,32,25,19,18,15,12,79,67,52,30.27,30.12,75,26,75,0.00
2013-2-21,38,27,17,28,20,13,93,76,55,30.31,29.97,75,19,75,0.00
2013-2-22,55,41,29,48,39,27,100,92,73,30.02,29.84,75,14,75,0.38
2013-2-23,47,38,33,39,30,25,96,75,49,29.98,29.86,75,18,75,0.00
2013-2-24,47,33,23,29,25,21,95,74,48,30.10,29.90,75,12,75,0.00
2013-2-25,49,37,26,28,25,22,85,65,43,30.11,29.80,75,7,75,0.00
2013-2-26,53,44,38,52,40,26,99,87,58,29.80,29.34,40,16,40,0.33
2013-2-27,38,36,31,38,35,31,100,99,96,29.74,29.54,37,29,37,0.06
2013-2-28,34,32,31,34,32,30,100,99,96,29.93,29.70,44,30,44,0.02
2013-3-1,35,33,30,35,33,30,100,100,100,29.98,29.88,42,4,42,0.03
2013-3-2,30,27,26,30,26,23,100,94,85,30.05,29.95,75,21,75,0.00
2013-3-3,32,27,20,26,23,18,99,86,68,30.05,30.00,75,25,75,0.00
2013-3-4,44,32,16,30,23,15,97,73,48,30.12,29.93,75,10,75,0.00
2013-3-5,43,38,30,43,34,28,100,88,63,29.93,29.52,75,12,75,0.63
2013-3-6,31,29,27,31,29,27,100,100,98,30.24,29.68,42,15,44,0.00
2013-3-7,35,32,29,32,30,28,100,93,82,30.38,30.21,75,3,75,0.01
2013-3-8,49,37,26,33,29,25,95,75,51,30.43,30.32,75,20,75,0.01
2013-3-9,62,46,31,40,33,28,89,64,38,30.33,30.03,75,7,75,0.00
2013-3-10,67,59,52,39,36,34,53,43,32,30.05,29.83,44,28,44,0.00
2013-3-11,61,49,38,55,44,36,100,85,42,29.87,29.63,75,15,75,0.94
2013-3-12,46,38,33,36,32,27,94,77,59,30.04,29.87,47,11,47,0.00
2013-3-13,38,30,26,32,25,19,99,83,63,30.32,30.01,75,18,75,0.00
2013-3-14,44,32,21,30,22,19,95,71,39,30.36,30.17,73,3,73,0.00
2013-3-15,57,44,31,43,36,29,92,76,58,30.18,29.74,75,4,75,0.00
2013-3-16,68,57,43,53,47,40,91,71,50,29.96,29.64,25,8,25,0.00
2013-3-17,43,34,32,41,34,32,100,98,91,30.08,29.89,23,6,23,0.82
2013-3-18,54,44,33,54,43,33,100,99,87,29.90,29.61,32,9,32,1.18
2013-3-19,45,38,31,36,26,15,97,67,30,30.12,29.84,32,10,32,0.00
2013-3-20,43,33,23,26,19,11,73,56,40,30.11,29.92,75,9,75,0.00
2013-3-21,33,24,19,19,14,11,85,67,43,30.01,29.91,75,4,75,0.00
2013-3-22,46,30,16,26,18,12,90,63,38,30.06,29.96,44,2,44,0.00
2013-3-23,57,43,35,30,27,23,77,54,34,30.01,29.79,75,3,75,0.00
2013-3-24,42,37,33,39,32,25,100,85,53,29.81,29.30,65,6,65,1.39
2013-3-25,38,32,29,38,31,28,100,100,95,29.93,29.39,27,12,27,0.01
2013-3-26,38,33,31,36,31,27,100,93,78,30.23,29.92,38,8,38,0.02
2013-3-27,42,35,27,31,27,24,92,72,54,30.32,30.21,27,5,27,0.00
2013-3-28,51,39,27,31,27,22,89,64,43,30.35,30.26,75,3,75,0.00
2013-3-29,57,42,29,41,32,25,89,70,38,30.31,30.17,75,8,75,0.00
2013-3-30,60,46,30,49,38,29,100,77,44,30.23,29.93,75,8,75,0.00
2013-3-31,58,50,46,52,46,40,100,87,64,29.93,29.78,75,10,75,0.08
2013-4-1,49,43,34,44,32,21,94,68,43,30.11,29.81,75,10,75,0.00
2013-4-2,49,37,25,24,19,15,77,50,28,30.27,30.10,75,10,75,0.00
2013-4-3,52,39,26,23,19,16,70,45,28,30.40,30.23,75,5,75,0.00
2013-4-4,52,43,33,34,25,18,66,51,42,30.28,29.97,75,14,75,0.00
2013-4-5,65,48,31,37,32,28,90,57,31,30.11,29.96,75,23,75,0.00
2013-4-6,69,54,40,42,34,27,62,48,35,30.17,29.92,52,25,52,0.00
2013-4-7,70,60,55,55,47,37,81,61,45,30.00,29.91,75,28,75,0.04
2013-4-8,72,62,52,58,52,45,84,69,56,30.01,29.92,75,28,75,0.00
2013-4-9,80,68,56,63,57,51,88,70,51,30.10,29.97,75,26,75,0.00
2013-4-10,82,72,63,66,60,56,85,69,51,30.02,29.81,44,8,44,0.00
2013-4-11,70,65,58,64,59,56,100,82,64,29.83,29.55,40,7,40,0.58
2013-4-12,60,48,40,59,42,35,100,82,63,29.95,29.55,75,21,75,0.32
2013-4-13,41,38,36,35,35,34,92,88,80,29.98,29.94,75,42,75,0.00
2013-4-15,69,65,60,58,56,54,84,73,67,30.01,29.94,71,4,71,0.00
2013-4-16,80,67,58,68,61,55,97,81,65,30.18,29.97,44,11,44,0.02
2013-4-17,75,65,59,66,62,58,100,92,71,30.22,29.99,67,9,68,0.46
2013-4-18,81,71,63,65,60,55,91,69,46,30.00,29.66,37,10,37,0.00
2013-4-19,73,49,38,63,43,33,100,81,57,30.04,29.48,41,20,41,0.76
2013-4-20,55,43,33,38,32,26,97,68,36,30.37,30.04,75,22,75,0.00
2013-4-21,63,48,34,37,32,28,79,56,36,30.50,30.33,75,8,75,0.00
2013-4-22,74,56,42,48,39,27,73,54,38,30.34,30.14,75,6,75,0.00
2013-4-23,69,59,46,56,49,40,82,70,60,30.15,29.94,75,8,75,0.00
2013-4-24,61,51,40,57,47,36,100,87,68,30.27,29.80,75,12,75,0.90
2013-4-25,59,46,32,43,37,31,100,74,49,30.38,30.26,75,20,75,0.00
2013-4-26,64,51,36,44,36,31,84,58,32,30.46,30.32,75,3,75,0.00
2013-4-27,58,54,49,55,48,42,100,83,70,30.36,30.05,75,5,75,0.33
2013-4-28,67,59,53,64,57,52,100,94,78,30.05,29.84,75,8,75,0.50
2013-4-29,64,57,52,59,55,51,100,92,74,30.04,29.93,75,8,75,0.00
2013-4-30,80,63,47,61,55,47,100,77,45,30.09,30.00,75,8,75,0.00
2013-5-1,85,70,54,62,58,52,96,69,44,30.20,30.07,75,7,75,0.00
2013-5-2,76,66,57,59,55,51,85,68,51,30.23,30.11,75,12,75,0.00
2013-5-3,77,66,58,60,55,44,86,69,48,30.11,29.96,75,25,75,0.00
2013-5-4,72,61,53,54,48,41,100,66,44,30.02,29.92,75,21,75,0.20
2013-5-5,72,55,51,59,55,51,100,100,100,30.00,29.88,75,27,75,2.43
2013-5-6,67,58,54,60,56,51,100,93,73,29.98,29.82,75,18,75,0.17
2013-5-7,74,62,56,59,57,54,100,83,56,29.97,29.88,75,10,75,0.00
2013-5-8,74,62,53,64,58,53,100,87,57,30.05,29.93,75,23,75,0.00
2013-5-9,79,67,55,63,59,55,100,77,46,30.07,29.97,75,16,75,0.00
2013-5-10,69,64,60,64,61,58,100,92,72,30.00,29.86,75,28,75,0.80
2013-5-11,62,57,53,62,54,50,100,93,73,29.99,29.86,75,20,75,0.06
2013-5-12,58,49,40,52,37,30,100,66,39,30.15,29.99,75,18,75,0.01
2013-5-13,63,50,36,41,36,32,95,62,34,30.21,30.13,75,22,75,0.00
2013-5-14,79,61,41,61,50,37,91,68,51,30.20,29.87,75,17,75,0.00
2013-5-15,84,74,65,64,59,51,81,63,41,30.01,29.89,75,7,75,0.00
2013-5-16,73,65,61,68,59,50,100,83,53,30.06,29.92,75,3,75,1.37
2013-5-17,77,69,61,69,64,61,100,86,62,30.10,30.00,75,26,75,0.00
2013-5-18,78,70,64,71,67,63,100,90,71,30.07,29.98,75,20,75,0.98
2013-5-19,85,73,63,75,68,63,100,87,57,30.04,29.93,75,16,75,0.00
2013-5-20,85,74,64,73,69,64,100,84,64,30.14,29.94,75,6,75,0.00
2013-5-21,83,72,64,71,67,61,98,86,58,29.99,29.85,28,4,28,0.12
2013-5-22,75,68,62,68,64,61,100,89,70,29.91,29.79,75,4,75,0.02
2013-5-23,71,63,56,65,60,53,100,90,63,30.07,29.86,75,6,75,0.02
2013-5-24,66,56,47,53,46,42,93,72,46,30.33,30.07,75,5,75,0.00
2013-5-25,68,56,42,54,47,41,97,74,48,30.40,30.22,75,2,75,0.00
2013-5-26,73,62,52,57,53,50,99,74,49,30.32,30.19,75,2,75,0.02
2013-5-27,83,70,57,62,57,52,89,65,39,30.21,30.02,27,5,27,0.00
2013-5-28,83,75,68,66,62,59,82,65,50,30.10,29.98,44,6,44,0.00
2013-5-29,85,75,66,68,64,59,84,69,55,30.14,30.04,44,4,75,0.00
2013-5-30,87,77,67,70,66,62,87,71,53,30.19,30.05,75,4,75,0.00
2013-5-31,82,74,67,73,67,64,99,81,63,30.12,30.00,28,5,28,0.32
2013-6-1,82,73,69,72,68,65,100,84,72,30.02,29.84,42,7,42,0.20
2013-6-2,78,70,63,68,65,60,100,84,64,29.97,29.88,39,6,40,0.00
2013-6-3,73,64,59,61,58,54,98,80,59,30.08,29.93,75,8,75,0.00
2013-6-4,80,67,54,60,56,52,95,71,47,30.12,30.05,45,3,45,0.00
2013-6-5,83,69,58,70,60,49,98,73,52,30.08,29.85,66,3,75,0.03
2013-6-6,76,69,65,71,67,64,100,94,81,29.89,29.76,75,3,75,0.13
2013-6-7,80,68,61,66,62,59,100,85,53,29.88,29.78,69,3,69,0.00
2013-6-8,82,70,60,67,62,59,98,78,56,30.06,29.87,71,3,71,0.00
2013-6-9,80,68,58,70,65,58,100,90,60,30.10,29.95,75,4,75,0.11
2013-6-10,76,69,64,70,66,63,100,90,71,29.95,29.84,75,8,75,1.32
2013-6-11,83,72,62,69,66,62,100,82,59,30.01,29.92,75,12,75,0.00
2013-6-12,91,80,70,77,72,67,96,78,57,29.99,29.81,75,14,75,0.00
2013-6-13,80,74,65,74,68,58,100,81,60,29.95,29.67,44,15,44,0.70
2013-6-14,83,69,56,63,59,54,95,73,49,30.08,29.92,75,5,75,0.00
2013-6-15,84,72,57,66,62,56,99,73,48,30.15,30.00,75,3,75,0.00
2013-6-16,81,71,64,72,66,62,100,86,69,30.09,29.98,75,6,75,0.28
2013-6-17,88,73,64,74,68,61,100,87,56,30.02,29.88,75,4,75,0.08
2013-6-18,87,71,63,69,66,57,100,85,53,30.00,29.85,75,4,75,0.18
2013-6-19,86,71,60,65,63,60,100,78,45,30.13,29.98,75,3,75,0.00
2013-6-20,90,74,59,68,63,58,99,71,42,30.22,30.12,75,2,75,0.00
2013-6-21,87,76,62,71,66,61,97,75,51,30.25,30.14,75,2,75,0.00
2013-6-22,90,76,64,72,68,62,99,77,44,30.24,30.09,75,3,75,0.00
2013-6-23,86,74,65,72,68,64,99,85,54,30.20,30.09,75,5,75,0.00
2013-6-24,83,71,65,75,69,63,100,93,72,30.21,30.09,75,5,75,0.44
2013-6-25,89,77,65,77,72,65,100,85,61,30.25,29.96,75,5,75,0.01
2013-6-26,149,77,66,100,75,63,100,92,72,30.01,29.80,75,7,75,2.71
2013-6-27,121,79,75,100,76,71,100,91,69,29.87,29.76,75,8,75,0.36
2013-6-28,84,76,66,74,67,61,98,75,48,29.78,29.63,75,8,75,0.00
2013-6-29,80,69,63,70,65,61,100,87,60,29.69,29.60,75,10,75,0.28
2013-6-30,83,70,62,69,64,62,100,84,53,29.83,29.67,75,7,75,0.00
2013-7-1,81,69,61,73,67,61,100,93,69,29.93,29.80,75,3,75,1.03
2013-7-2,84,70,61,72,66,61,100,88,62,30.05,29.91,75,3,75,0.31
2013-7-3,78,72,67,72,69,66,100,90,74,30.14,30.05,49,4,75,0.00
2013-7-4,71,68,64,70,67,64,100,97,85,30.18,30.10,71,7,71,1.81
2013-7-5,74,69,65,74,69,65,100,100,97,30.19,30.10,75,5,75,1.99
2013-7-6,74,69,66,72,69,66,100,99,93,30.17,30.10,75,9,75,1.66
2013-7-7,82,72,65,72,68,65,100,89,64,30.17,30.07,75,9,75,0.01
2013-7-8,86,75,63,74,69,63,100,85,59,30.18,30.08,75,11,75,0.00
2013-7-9,87,80,72,76,73,70,97,81,63,30.15,30.03,75,9,75,0.00
2013-7-10,88,76,68,78,73,66,100,92,67,30.05,29.87,39,10,39,0.47
2013-7-11,82,73,68,76,69,62,100,89,65,30.02,29.94,75,3,75,0.17
2013-7-12,82,70,59,63,60,57,92,73,47,30.10,30.02,19,4,19,0.00
2013-7-13,84,72,62,71,65,60,92,79,59,30.14,30.04,28,4,28,0.00
2013-7-14,93,78,67,76,72,66,99,81,56,30.26,30.12,75,4,75,0.00
2013-7-15,93,80,70,74,72,68,96,76,52,30.33,30.25,73,3,73,0.00
2013-7-16,96,81,68,76,72,68,100,77,47,30.37,30.29,75,1,75,0.00
2013-7-17,95,80,69,77,73,67,100,82,50,30.35,30.22,75,3,75,1.16
2013-7-18,90,79,71,81,75,70,100,89,66,30.26,30.07,74,2,74,0.02
2013-7-19,89,79,70,77,74,70,100,86,64,30.11,29.95,32,3,32,0.00
2013-7-20,87,79,71,76,74,71,100,86,61,30.00,29.90,75,4,75,0.00
2013-7-21,88,77,70,75,72,70,100,86,62,30.01,29.91,75,2,75,0.00
2013-7-22,79,72,68,76,71,68,100,97,83,29.98,29.79,75,3,75,1.71
2013-7-23,85,75,68,77,72,67,100,92,71,29.88,29.77,75,5,75,0.14
2013-7-24,78,68,61,71,64,59,100,87,64,29.99,29.82,37,4,37,0.00
2013-7-25,79,68,58,63,60,57,98,79,54,30.10,29.99,75,3,75,0.00
2013-7-26,80,68,54,67,61,54,100,81,56,30.11,30.00,75,2,75,0.00
2013-7-27,72,67,62,67,65,60,100,94,78,30.01,29.89,75,14,75,0.20
2013-7-28,73,63,52,60,55,49,100,77,51,30.11,29.92,75,8,75,0.00
2013-7-29,78,65,52,64,58,52,100,80,54,30.21,30.09,75,2,75,0.00
2013-7-30,78,67,58,68,62,58,100,84,59,30.26,30.16,75,2,75,0.00
2013-7-31,76,68,62,71,67,62,100,95,82,30.14,29.97,75,4,75,0.31
2013-8-1,79,71,64,71,66,61,100,85,59,30.03,29.94,40,5,75,0.00
2013-8-2,81,70,58,68,62,58,100,81,55,30.06,30.01,75,3,75,0.00
2013-8-3,82,73,67,73,68,64,100,87,71,30.06,29.98,75,3,75,0.05
2013-8-4,79,68,59,67,61,56,100,80,49,30.15,30.05,34,4,35,0.01
2013-8-5,83,68,54,63,58,54,100,74,43,30.15,29.97,75,2,75,0.00
2013-8-6,83,73,63,72,66,60,96,80,64,30.01,29.93,74,3,74,0.00
2013-8-7,84,75,68,76,72,67,100,92,74,29.99,29.88,75,3,75,1.34
2013-8-8,84,76,71,83,75,70,100,95,80,30.00,29.91,63,3,67,0.07
2013-8-9,80,73,70,76,73,70,100,98,84,30.06,29.94,75,4,75,0.43
2013-8-10,82,74,70,76,72,68,100,91,68,30.15,30.05,75,1,75,0.52
2013-8-11,83,75,70,77,72,68,100,92,67,30.14,30.06,75,2,75,0.23
2013-8-12,81,71,64,76,70,64,100,96,75,30.12,29.92,75,9,75,0.21
2013-8-13,76,70,61,73,67,57,100,90,72,30.05,29.90,44,7,60,0.06
2013-8-14,74,65,54,57,53,50,97,68,46,30.17,30.05,43,4,43,0.00
2013-8-15,78,63,51,59,55,50,98,76,48,30.18,30.07,75,4,75,0.00
2013-8-16,82,67,56,63,58,54,97,77,51,30.17,29.88,75,6,75,0.00
2013-8-17,84,70,60,69,62,57,94,77,52,30.20,30.12,35,4,35,0.00
2013-8-18,81,69,60,70,65,59,100,86,64,30.21,30.12,75,2,75,0.00
2013-8-19,86,72,63,72,67,63,100,86,59,30.17,30.08,75,2,75,0.00
2013-8-20,85,72,63,72,68,63,100,88,59,30.19,30.10,75,3,75,0.04
2013-8-21,83,72,65,75,69,65,100,92,63,30.20,30.09,34,3,34,0.04
2013-8-22,85,74,65,76,70,65,100,86,60,30.16,30.04,75,3,75,0.00
2013-8-23,86,74,67,71,68,65,100,84,56,30.15,30.04,75,3,75,0.00
2013-8-24,88,74,62,70,64,58,100,74,40,30.29,30.15,75,3,75,0.00
2013-8-25,86,71,58,68,62,58,100,79,46,30.38,30.26,75,2,75,0.00
2013-8-26,86,73,62,72,68,62,100,85,58,30.31,30.13,75,3,75,0.00
2013-8-27,87,76,68,77,72,68,100,89,66,30.15,30.00,36,4,36,0.00
2013-8-28,89,78,70,75,72,69,100,83,54,30.06,29.92,20,5,20,0.01
2013-8-29,89,77,71,74,72,69,100,85,57,30.06,29.97,75,3,75,0.01
2013-8-30,88,75,63,74,69,63,100,83,53,30.04,29.88,75,3,75,0.00
2013-8-31,89,72,66,79,71,66,100,95,67,29.95,29.80,75,10,75,1.22
2013-9-1,81,72,65,73,69,65,100,91,73,29.89,29.81,75,4,75,0.01
2013-9-2,83,73,68,76,71,66,100,95,77,29.93,29.83,30,4,30,0.27
2013-9-3,76,67,59,68,61,56,100,83,56,30.08,29.90,75,4,75,0.00
2013-9-4,80,65,52,65,59,52,100,83,56,30.21,30.08,75,2,75,0.00
2013-9-5,83,68,56,68,62,56,100,83,52,30.23,30.15,75,3,75,0.00
2013-9-6,85,68,58,64,59,56,98,75,41,30.25,30.13,75,3,75,0.00
2013-9-7,83,69,55,70,63,55,100,83,59,30.14,30.00,75,2,75,0.00
2013-9-8,88,74,64,73,68,64,100,84,52,30.04,29.96,75,1,75,0.00
2013-9-9,87,76,65,73,70,65,100,82,59,30.08,30.00,75,2,75,0.00
2013-9-10,88,78,69,75,72,69,100,84,63,30.19,30.07,75,3,75,0.00
2013-9-11,87,76,69,76,72,69,100,88,65,30.21,30.08,75,3,75,0.00
2013-9-12,79,71,65,73,68,64,100,91,65,30.09,29.90,75,4,75,0.00
2013-9-13,67,60,52,66,52,45,98,75,53,30.09,29.93,75,6,75,0.00
2013-9-14,74,57,45,51,47,44,100,72,37,30.18,30.08,14,3,14,0.00
2013-9-15,76,61,44,62,54,44,100,81,58,30.16,30.07,75,3,75,0.00
2013-9-16,71,64,55,64,60,54,100,89,68,30.28,30.09,62,2,75,0.00
2013-9-17,77,62,51,58,54,51,100,79,45,30.31,30.16,19,4,19,0.00
2013-9-18,70,64,56,68,63,55,100,96,90,30.18,30.09,70,2,70,0.01
2013-9-19,78,68,62,72,67,61,100,96,81,30.16,30.02,43,3,43,0.10
2013-9-20,82,72,64,70,67,64,100,86,62,30.05,29.83,75,4,75,0.01
2013-9-21,69,63,54,68,59,51,100,89,59,29.88,29.71,19,5,19,1.16
2013-9-22,71,58,48,52,50,47,97,78,50,30.01,29.87,13,3,13,0.00
2013-9-23,74,58,46,53,49,45,99,74,45,30.09,30.00,72,4,72,0.00
2013-9-24,80,62,48,64,55,47,97,79,54,30.08,29.90,75,3,75,0.00
2013-9-25,78,65,58,63,59,55,97,82,56,29.92,29.84,73,3,75,0.00
2013-9-26,80,64,52,61,56,51,100,79,47,30.08,29.92,66,2,75,0.00
2013-9-27,83,65,52,65,55,51,100,77,36,30.18,30.07,75,1,75,0.00
2013-9-28,80,63,49,61,56,49,100,81,51,30.21,30.09,75,1,75,0.00
2013-9-29,70,61,54,62,58,54,100,91,70,30.11,30.03,75,3,75,0.00
2013-9-30,74,65,58,63,60,57,100,85,63,30.05,29.96,75,3,75,0.00
2013-10-1,78,66,54,65,61,54,100,86,63,30.12,30.03,75,2,75,0.00
2013-10-2,81,68,57,71,65,57,100,91,67,30.16,30.04,75,3,75,0.00
2013-10-3,78,69,65,74,68,65,100,95,74,30.13,30.04,75,18,75,0.12
2013-10-4,81,70,61,70,65,61,100,87,63,30.15,30.06,75,26,75,0.00
2013-10-5,79,69,66,70,67,64,100,94,74,30.10,29.96,75,28,75,1.23
2013-10-6,71,63,51,70,63,51,100,99,92,29.98,29.77,75,23,75,1.22
2013-10-7,61,51,43,52,46,43,100,86,58,30.16,29.87,75,13,75,0.03
2013-10-8,68,53,41,51,46,41,100,80,47,30.25,30.16,75,5,75,0.00
2013-10-9,76,59,47,53,48,44,92,71,39,30.24,30.13,63,3,70,0.00
2013-10-10,77,57,43,54,48,43,100,75,36,30.19,30.07,75,1,75,0.00
2013-10-11,76,60,45,56,51,44,100,76,47,30.11,30.01,75,2,75,0.00
2013-10-12,76,62,49,62,55,49,100,83,52,30.14,30.02,75,2,75,0.00
2013-10-13,75,61,49,64,58,49,100,89,64,30.28,30.13,75,3,75,0.00
2013-10-14,75,60,49,58,53,45,95,78,51,30.33,30.17,20,3,20,0.00
2013-10-15,70,63,57,64,60,56,100,90,73,30.19,29.95,41,5,41,0.00
2013-10-16,63,60,55,62,60,55,100,100,96,29.99,29.91,75,4,75,0.14
2013-10-17,55,50,44,55,49,44,100,94,81,30.02,29.89,75,5,75,0.20
2013-10-18,62,48,36,52,43,35,100,85,54,30.33,29.95,75,4,75,0.00
2013-10-19,49,44,38,49,43,38,100,98,86,30.03,29.85,75,7,75,0.20
2013-10-20,59,44,31,46,39,30,100,83,52,30.09,30.01,75,8,75,0.01
2013-10-21,64,50,35,45,41,34,100,75,46,30.06,29.93,75,4,75,0.00
2013-10-22,54,45,33,48,37,30,100,76,43,30.07,29.84,75,4,75,0.04
2013-10-23,44,41,36,44,37,32,100,88,71,30.06,29.73,75,12,75,0.02
2013-10-24,43,37,33,36,33,30,93,86,63,30.29,30.06,75,12,75,0.01
2013-10-25,46,34,25,32,28,25,100,79,48,30.47,30.29,75,9,75,0.01
2013-10-26,52,38,26,36,30,24,94,75,52,30.32,29.97,75,9,75,0.00
2013-10-27,59,42,29,44,35,29,100,77,43,30.11,30.04,75,3,75,0.00
2013-10-28,63,47,36,50,41,33,100,83,52,30.29,30.09,75,2,75,0.00
2013-10-29,57,47,34,56,46,33,100,99,94,30.36,30.19,75,2,75,0.07
2013-10-30,65,59,53,65,58,53,100,100,98,30.21,30.06,68,5,68,1.21
2013-10-31,67,62,60,63,59,55,100,89,76,30.07,29.45,43,14,43,0.72
2013-11-1,62,55,49,62,50,44,100,83,60,29.77,29.49,75,24,75,0.32
2013-11-2,54,47,39,45,41,35,100,81,62,30.10,29.76,75,18,75,0.00
2013-11-3,56,43,35,43,37,33,100,80,52,30.36,30.10,75,5,75,0.00
2013-11-4,58,47,37,44,39,34,88,74,57,30.39,30.29,45,7,45,0.00
2013-11-5,63,52,46,45,41,35,80,65,48,30.42,30.24,75,4,75,0.00
2013-11-6,68,56,48,59,50,35,100,80,59,30.25,30.02,42,14,42,0.35
2013-11-7,49,41,34,49,34,27,100,79,49,30.30,30.03,75,25,75,0.12
2013-11-8,51,38,27,34,29,25,97,73,42,30.40,30.25,75,27,75,0.00
2013-11-9,59,45,33,35,31,26,80,60,37,30.26,30.10,75,7,75,0.00
2013-11-10,52,43,32,39,30,25,92,62,36,30.35,30.16,75,17,75,0.00
2013-11-11,59,44,28,42,30,24,92,64,27,30.31,30.09,75,24,75,0.00
2013-11-12,44,29,22,42,23,16,100,79,53,30.62,30.16,75,28,75,0.09
2013-11-13,38,27,18,26,20,17,98,77,50,30.65,30.40,75,23,75,0.00
2013-11-14,52,37,24,27,22,19,85,58,30,30.41,30.18,75,27,75,0.00
2013-11-15,52,42,31,44,32,20,98,68,50,30.20,30.11,75,22,75,0.08
2013-11-16,58,51,40,56,50,40,100,96,89,30.15,29.93,75,32,75,0.00
2013-11-17,64,58,50,64,56,45,100,94,72,29.94,29.60,75,25,75,1.24
2013-11-18,52,46,36,46,36,26,94,71,49,30.20,29.84,45,18,45,0.00
2013-11-19,41,34,28,31,27,25,91,77,62,30.33,30.20,75,28,75,0.00
2013-11-20,52,38,26,35,30,24,91,72,51,30.30,30.21,75,26,75,0.00
2013-11-21,58,48,39,51,40,29,91,74,66,30.33,30.21,75,22,75,0.00
2013-11-22,53,49,38,53,48,34,100,98,87,30.37,30.20,47,17,47,0.24
2013-11-23,40,31,20,34,24,12,95,75,36,30.54,30.31,75,33,75,0.00
2013-11-24,27,20,14,16,11,5,83,66,51,30.68,30.48,75,39,75,0.00
2013-11-25,39,29,19,30,18,12,99,66,46,30.48,30.16,75,27,75,0.00
2013-11-26,33,30,28,32,30,28,100,100,99,30.19,29.88,75,10,75,0.27
2013-11-27,29,25,17,29,22,15,100,92,81,30.28,29.88,75,8,75,0.00
2013-11-28,34,22,12,24,17,11,96,82,64,30.43,30.26,75,6,75,0.01
2013-11-29,43,28,17,28,22,14,95,77,53,30.59,30.42,65,2,65,0.00
2013-11-30,51,37,26,34,28,22,85,70,49,30.46,30.18,75,4,75,0.00
2013-12-1,48,41,35,37,32,26,81,70,62,30.19,29.94,75,3,75,0.00
2013-12-2,54,43,32,42,37,30,97,82,62,29.94,29.75,20,2,20,0.00
2013-12-3,53,47,40,50,45,39,100,93,82,29.85,29.76,13,4,13,0.00
2013-12-4,63,55,46,59,53,46,100,94,81,29.87,29.74,18,6,18,0.00
2013-12-5,62,49,31,62,48,31,100,98,91,30.14,29.84,25,7,25,0.95
2013-12-6,33,29,25,31,29,25,100,100,100,30.34,30.08,73,5,73,0.35
2013-12-7,27,23,19,26,23,18,100,98,93,30.54,30.33,75,3,75,0.00
2013-12-8,32,25,20,32,25,19,100,99,96,30.46,29.99,62,4,62,0.00
2013-12-9,32,28,24,32,28,22,100,98,93,30.22,29.98,75,6,75,0.01
2013-12-10,28,22,18,23,20,17,100,92,78,30.34,30.08,74,5,74,0.01
2013-12-11,36,24,13,28,20,13,100,87,62,30.47,30.29,38,6,38,0.01
2013-12-12,26,18,8,16,11,6,94,76,55,30.56,30.31,75,7,75,0.00
2013-12-13,41,29,18,32,19,12,98,69,47,30.33,30.09,75,13,75,0.16
2013-12-14,41,36,32,41,35,31,100,98,84,30.11,29.67,75,21,75,0.88
2013-12-15,32,27,25,32,26,24,100,96,91,30.11,29.85,75,14,75,0.00
2013-12-16,39,31,26,35,30,25,100,95,84,30.11,29.99,75,24,75,0.00
2013-12-17,38,32,26,36,31,24,99,95,90,30.19,29.96,75,17,75,0.00
2013-12-18,38,29,21,26,22,19,100,77,47,30.30,30.08,75,20,75,0.00
2013-12-19,56,44,31,42,31,21,65,60,50,30.14,30.00,75,28,75,0.00
2013-12-20,57,52,47,57,46,32,99,81,51,30.00,29.87,42,28,42,0.07
2013-12-21,67,59,54,64,58,54,100,97,86,29.88,29.53,42,23,42,0.27
2013-12-22,58,52,38,58,51,38,100,96,84,30.06,29.60,75,23,75,0.72
2013-12-23,38,31,23,38,28,19,100,87,69,30.38,30.06,75,29,75,0.02
2013-12-24,25,19,13,21,14,9,97,80,58,30.52,30.36,75,17,75,0.00
2013-12-25,36,26,14,23,17,11,90,72,49,30.45,30.18,75,17,75,0.00
2013-12-26,40,33,28,27,24,21,87,72,55,30.38,30.17,75,34,75,0.00
2013-12-27,48,34,22,30,25,20,92,72,48,30.43,30.31,75,20,75,0.00
2013-12-28,47,38,29,33,27,22,84,66,54,30.33,30.02,75,37,75,0.01
2013-12-29,43,37,29,42,36,29,100,98,85,30.03,29.82,75,32,75,0.64
2013-12-30,29,26,21,29,25,18,100,93,80,30.23,30.02,75,19,75,0.00
2013-12-31,34,26,20,22,20,17,92,79,59,30.38,30.17,75,16,75,0.00
2014-1-1,45,34,26,30,26,21,89,73,48,30.27,29.97,75,18,75,0.00
2014-1-2,36,26,11,34,24,10,100,92,67,30.24,29.76,75,29,75,0.16